sensor_id;sensor_type;location;lat;lon;timestamp;P1;durP1;ratioP1;P2;durP2;ratioP2
32295;SDS011;18781;51.550;5.418;2022-07-29T00:01:42;7.20;;;1.95;;
32295;SDS011;18781;51.550;5.418;2022-07-29T00:04:08;4.80;;;1.70;;
32295;SDS011;18781;51.550;5.418;2022-07-29T00:06:33;8.10;;;2.13;;
32295;SDS011;18781;51.550;5.418;2022-07-29T00:08:59;8.15;;;1.70;;
32295;SDS011;18781;51.550;5.418;2022-07-29T00:11:25;5.63;;;1.73;;
32295;SDS011;18781;51.550;5.418;2022-07-29T00:13:50;5.72;;;1.83;;
32295;SDS011;18781;51.550;5.418;2022-07-29T00:16:16;5.82;;;2.17;;
32295;SDS011;18781;51.550;5.418;2022-07-29T00:18:41;2.97;;;1.90;;
32295;SDS011;18781;51.550;5.418;2022-07-29T00:21:07;6.90;;;1.70;;
32295;SDS011;18781;51.550;5.418;2022-07-29T00:23:32;4.25;;;1.80;;
32295;SDS011;18781;51.550;5.418;2022-07-29T00:25:58;4.95;;;1.55;;
32295;SDS011;18781;51.550;5.418;2022-07-29T00:28:24;3.88;;;1.75;;
32295;SDS011;18781;51.550;5.418;2022-07-29T00:30:49;5.90;;;1.77;;
32295;SDS011;18781;51.550;5.418;2022-07-29T00:33:15;7.03;;;1.63;;
32295;SDS011;18781;51.550;5.418;2022-07-29T00:35:40;6.28;;;1.92;;
32295;SDS011;18781;51.550;5.418;2022-07-29T00:38:12;4.25;;;1.70;;
32295;SDS011;18781;51.550;5.418;2022-07-29T00:40:39;3.45;;;1.70;;
32295;SDS011;18781;51.550;5.418;2022-07-29T00:43:05;7.00;;;2.00;;
32295;SDS011;18781;51.550;5.418;2022-07-29T00:45:31;4.60;;;2.00;;
32295;SDS011;18781;51.550;5.418;2022-07-29T00:47:57;7.88;;;1.92;;
32295;SDS011;18781;51.550;5.418;2022-07-29T00:50:22;7.95;;;1.60;;
32295;SDS011;18781;51.550;5.418;2022-07-29T00:52:48;3.00;;;1.70;;
32295;SDS011;18781;51.550;5.418;2022-07-29T00:55:15;5.20;;;1.70;;
32295;SDS011;18781;51.550;5.418;2022-07-29T00:57:42;5.80;;;2.05;;
32295;SDS011;18781;51.550;5.418;2022-07-29T01:00:19;4.15;;;1.70;;
32295;SDS011;18781;51.550;5.418;2022-07-29T01:02:49;4.15;;;1.80;;
32295;SDS011;18781;51.550;5.418;2022-07-29T01:05:16;7.03;;;1.95;;
32295;SDS011;18781;51.550;5.418;2022-07-29T01:07:43;5.87;;;1.87;;
32295;SDS011;18781;51.550;5.418;2022-07-29T01:10:11;7.63;;;2.13;;
32295;SDS011;18781;51.550;5.418;2022-07-29T01:12:38;7.00;;;2.22;;
32295;SDS011;18781;51.550;5.418;2022-07-29T01:15:05;9.88;;;2.17;;
32295;SDS011;18781;51.550;5.418;2022-07-29T01:20:31;8.90;;;2.38;;
32295;SDS011;18781;51.550;5.418;2022-07-29T01:23:34;9.75;;;2.45;;
32295;SDS011;18781;51.550;5.418;2022-07-29T01:31:47;7.70;;;2.13;;
32295;SDS011;18781;51.550;5.418;2022-07-29T01:37:18;7.05;;;2.10;;
32295;SDS011;18781;51.550;5.418;2022-07-29T01:39:54;6.32;;;2.20;;
32295;SDS011;18781;51.550;5.418;2022-07-29T01:42:27;7.05;;;2.17;;
32295;SDS011;18781;51.550;5.418;2022-07-29T01:45:08;7.57;;;2.33;;
32295;SDS011;18781;51.550;5.418;2022-07-29T01:47:53;8.38;;;2.33;;
32295;SDS011;18781;51.550;5.418;2022-07-29T01:50:40;12.20;;;2.08;;
32295;SDS011;18781;51.550;5.418;2022-07-29T01:53:12;8.15;;;2.08;;
32295;SDS011;18781;51.550;5.418;2022-07-29T01:55:44;5.32;;;2.38;;
32295;SDS011;18781;51.550;5.418;2022-07-29T01:58:11;7.68;;;2.25;;
32295;SDS011;18781;51.550;5.418;2022-07-29T02:00:38;4.82;;;1.92;;
32295;SDS011;18781;51.550;5.418;2022-07-29T02:03:07;9.13;;;2.50;;
32295;SDS011;18781;51.550;5.418;2022-07-29T02:05:35;8.20;;;2.25;;
32295;SDS011;18781;51.550;5.418;2022-07-29T02:08:02;6.15;;;2.53;;
32295;SDS011;18781;51.550;5.418;2022-07-29T02:10:31;4.53;;;2.10;;
32295;SDS011;18781;51.550;5.418;2022-07-29T02:12:59;4.82;;;2.03;;
32295;SDS011;18781;51.550;5.418;2022-07-29T02:15:27;5.70;;;2.10;;
32295;SDS011;18781;51.550;5.418;2022-07-29T02:17:55;8.60;;;2.40;;
32295;SDS011;18781;51.550;5.418;2022-07-29T02:20:25;7.22;;;2.13;;
32295;SDS011;18781;51.550;5.418;2022-07-29T02:22:51;9.05;;;2.65;;
32295;SDS011;18781;51.550;5.418;2022-07-29T02:25:18;6.82;;;2.42;;
32295;SDS011;18781;51.550;5.418;2022-07-29T02:27:45;6.07;;;2.25;;
32295;SDS011;18781;51.550;5.418;2022-07-29T02:30:13;7.03;;;2.13;;
32295;SDS011;18781;51.550;5.418;2022-07-29T02:32:39;6.20;;;2.50;;
32295;SDS011;18781;51.550;5.418;2022-07-29T02:35:07;7.30;;;2.60;;
32295;SDS011;18781;51.550;5.418;2022-07-29T02:37:33;7.15;;;2.75;;
32295;SDS011;18781;51.550;5.418;2022-07-29T02:40:01;7.22;;;2.47;;
32295;SDS011;18781;51.550;5.418;2022-07-29T02:42:27;7.53;;;2.85;;
32295;SDS011;18781;51.550;5.418;2022-07-29T02:44:54;5.47;;;2.75;;
32295;SDS011;18781;51.550;5.418;2022-07-29T02:47:22;9.60;;;2.78;;
32295;SDS011;18781;51.550;5.418;2022-07-29T02:50:14;9.25;;;2.63;;
32295;SDS011;18781;51.550;5.418;2022-07-29T02:52:47;5.88;;;2.65;;
32295;SDS011;18781;51.550;5.418;2022-07-29T02:55:25;9.07;;;2.90;;
32295;SDS011;18781;51.550;5.418;2022-07-29T02:58:08;7.38;;;2.55;;
32295;SDS011;18781;51.550;5.418;2022-07-29T03:00:45;5.07;;;2.70;;
32295;SDS011;18781;51.550;5.418;2022-07-29T03:03:15;6.05;;;2.70;;
32295;SDS011;18781;51.550;5.418;2022-07-29T03:05:42;4.43;;;2.10;;
32295;SDS011;18781;51.550;5.418;2022-07-29T03:08:08;8.02;;;2.60;;
32295;SDS011;18781;51.550;5.418;2022-07-29T03:10:36;6.40;;;2.33;;
32295;SDS011;18781;51.550;5.418;2022-07-29T03:13:04;13.45;;;2.63;;
32295;SDS011;18781;51.550;5.418;2022-07-29T03:15:30;6.80;;;2.75;;
32295;SDS011;18781;51.550;5.418;2022-07-29T03:17:56;11.52;;;2.75;;
32295;SDS011;18781;51.550;5.418;2022-07-29T03:20:24;6.15;;;2.40;;
32295;SDS011;18781;51.550;5.418;2022-07-29T03:22:52;6.97;;;2.80;;
32295;SDS011;18781;51.550;5.418;2022-07-29T03:25:18;6.45;;;2.40;;
32295;SDS011;18781;51.550;5.418;2022-07-29T03:27:45;5.07;;;2.40;;
32295;SDS011;18781;51.550;5.418;2022-07-29T03:30:12;14.43;;;3.10;;
32295;SDS011;18781;51.550;5.418;2022-07-29T03:32:39;8.25;;;2.50;;
32295;SDS011;18781;51.550;5.418;2022-07-29T03:35:05;11.77;;;2.63;;
32295;SDS011;18781;51.550;5.418;2022-07-29T03:37:32;6.72;;;2.65;;
32295;SDS011;18781;51.550;5.418;2022-07-29T03:39:58;5.47;;;2.33;;
32295;SDS011;18781;51.550;5.418;2022-07-29T03:42:29;6.53;;;2.47;;
32295;SDS011;18781;51.550;5.418;2022-07-29T03:44:57;6.85;;;2.38;;
32295;SDS011;18781;51.550;5.418;2022-07-29T03:47:25;6.10;;;2.60;;
32295;SDS011;18781;51.550;5.418;2022-07-29T03:49:54;6.22;;;2.40;;
32295;SDS011;18781;51.550;5.418;2022-07-29T03:52:24;6.10;;;2.33;;
32295;SDS011;18781;51.550;5.418;2022-07-29T03:54:51;8.18;;;2.72;;
32295;SDS011;18781;51.550;5.418;2022-07-29T03:57:17;8.15;;;2.60;;
32295;SDS011;18781;51.550;5.418;2022-07-29T03:59:45;8.65;;;2.80;;
32295;SDS011;18781;51.550;5.418;2022-07-29T04:02:12;6.57;;;2.33;;
32295;SDS011;18781;51.550;5.418;2022-07-29T04:04:38;8.38;;;2.67;;
32295;SDS011;18781;51.550;5.418;2022-07-29T04:07:03;12.60;;;2.80;;
32295;SDS011;18781;51.550;5.418;2022-07-29T04:09:29;8.50;;;2.50;;
32295;SDS011;18781;51.550;5.418;2022-07-29T04:11:55;6.53;;;2.70;;
32295;SDS011;18781;51.550;5.418;2022-07-29T04:14:21;10.15;;;2.53;;
32295;SDS011;18781;51.550;5.418;2022-07-29T04:16:47;6.95;;;2.60;;
32295;SDS011;18781;51.550;5.418;2022-07-29T04:19:12;6.80;;;2.60;;
32295;SDS011;18781;51.550;5.418;2022-07-29T04:21:39;6.30;;;2.75;;
32295;SDS011;18781;51.550;5.418;2022-07-29T04:24:05;6.80;;;2.67;;
32295;SDS011;18781;51.550;5.418;2022-07-29T04:26:31;5.45;;;2.58;;
32295;SDS011;18781;51.550;5.418;2022-07-29T04:28:57;8.32;;;2.22;;
32295;SDS011;18781;51.550;5.418;2022-07-29T04:31:23;8.40;;;2.83;;
32295;SDS011;18781;51.550;5.418;2022-07-29T04:33:48;5.75;;;3.08;;
32295;SDS011;18781;51.550;5.418;2022-07-29T04:36:14;8.57;;;2.55;;
32295;SDS011;18781;51.550;5.418;2022-07-29T04:38:40;10.13;;;3.30;;
32295;SDS011;18781;51.550;5.418;2022-07-29T04:41:05;7.95;;;3.10;;
32295;SDS011;18781;51.550;5.418;2022-07-29T04:43:36;9.02;;;3.10;;
32295;SDS011;18781;51.550;5.418;2022-07-29T04:46:03;10.25;;;3.17;;
32295;SDS011;18781;51.550;5.418;2022-07-29T04:48:28;8.13;;;3.20;;
32295;SDS011;18781;51.550;5.418;2022-07-29T04:50:55;8.93;;;3.03;;
32295;SDS011;18781;51.550;5.418;2022-07-29T04:53:21;7.13;;;3.05;;
32295;SDS011;18781;51.550;5.418;2022-07-29T04:55:47;14.95;;;3.60;;
32295;SDS011;18781;51.550;5.418;2022-07-29T04:58:12;10.68;;;3.40;;
32295;SDS011;18781;51.550;5.418;2022-07-29T05:00:38;7.78;;;2.85;;
32295;SDS011;18781;51.550;5.418;2022-07-29T05:03:04;8.43;;;3.40;;
32295;SDS011;18781;51.550;5.418;2022-07-29T05:05:30;7.78;;;3.45;;
32295;SDS011;18781;51.550;5.418;2022-07-29T05:07:55;3.63;;;2.78;;
32295;SDS011;18781;51.550;5.418;2022-07-29T05:10:21;10.13;;;4.22;;
32295;SDS011;18781;51.550;5.418;2022-07-29T05:12:47;15.77;;;3.58;;
32295;SDS011;18781;51.550;5.418;2022-07-29T05:15:13;9.68;;;3.25;;
32295;SDS011;18781;51.550;5.418;2022-07-29T05:17:39;7.22;;;3.45;;
32295;SDS011;18781;51.550;5.418;2022-07-29T05:20:05;9.13;;;3.53;;
32295;SDS011;18781;51.550;5.418;2022-07-29T05:22:31;9.55;;;3.65;;
32295;SDS011;18781;51.550;5.418;2022-07-29T05:24:57;6.38;;;3.75;;
32295;SDS011;18781;51.550;5.418;2022-07-29T05:27:22;7.63;;;3.30;;
32295;SDS011;18781;51.550;5.418;2022-07-29T05:29:48;8.23;;;4.18;;
32295;SDS011;18781;51.550;5.418;2022-07-29T05:32:13;9.73;;;4.13;;
32295;SDS011;18781;51.550;5.418;2022-07-29T05:34:39;6.28;;;3.90;;
32295;SDS011;18781;51.550;5.418;2022-07-29T05:37:05;7.22;;;3.88;;
32295;SDS011;18781;51.550;5.418;2022-07-29T05:39:31;11.10;;;4.50;;
32295;SDS011;18781;51.550;5.418;2022-07-29T05:41:56;8.60;;;4.32;;
32295;SDS011;18781;51.550;5.418;2022-07-29T05:44:22;11.80;;;4.88;;
32295;SDS011;18781;51.550;5.418;2022-07-29T05:46:47;7.57;;;4.03;;
32295;SDS011;18781;51.550;5.418;2022-07-29T05:49:13;11.38;;;4.63;;
32295;SDS011;18781;51.550;5.418;2022-07-29T05:51:39;10.82;;;4.22;;
32295;SDS011;18781;51.550;5.418;2022-07-29T05:54:05;10.98;;;4.43;;
32295;SDS011;18781;51.550;5.418;2022-07-29T05:56:30;16.45;;;5.30;;
32295;SDS011;18781;51.550;5.418;2022-07-29T05:58:56;14.48;;;4.55;;
32295;SDS011;18781;51.550;5.418;2022-07-29T06:01:22;9.45;;;4.63;;
32295;SDS011;18781;51.550;5.418;2022-07-29T06:03:47;7.20;;;4.18;;
32295;SDS011;18781;51.550;5.418;2022-07-29T06:06:13;10.27;;;4.43;;
32295;SDS011;18781;51.550;5.418;2022-07-29T06:08:38;10.07;;;4.85;;
32295;SDS011;18781;51.550;5.418;2022-07-29T06:11:05;11.40;;;4.72;;
32295;SDS011;18781;51.550;5.418;2022-07-29T06:13:31;9.23;;;4.82;;
32295;SDS011;18781;51.550;5.418;2022-07-29T06:15:57;15.82;;;5.05;;
32295;SDS011;18781;51.550;5.418;2022-07-29T06:18:22;10.23;;;5.30;;
32295;SDS011;18781;51.550;5.418;2022-07-29T06:20:51;12.52;;;5.00;;
32295;SDS011;18781;51.550;5.418;2022-07-29T06:23:18;14.65;;;5.63;;
32295;SDS011;18781;51.550;5.418;2022-07-29T06:25:44;10.23;;;5.25;;
32295;SDS011;18781;51.550;5.418;2022-07-29T06:28:10;12.55;;;4.90;;
32295;SDS011;18781;51.550;5.418;2022-07-29T06:30:36;11.05;;;4.75;;
32295;SDS011;18781;51.550;5.418;2022-07-29T06:33:01;19.10;;;5.15;;
32295;SDS011;18781;51.550;5.418;2022-07-29T06:35:28;10.00;;;5.43;;
32295;SDS011;18781;51.550;5.418;2022-07-29T06:37:53;9.88;;;4.97;;
32295;SDS011;18781;51.550;5.418;2022-07-29T06:40:19;10.45;;;4.70;;
32295;SDS011;18781;51.550;5.418;2022-07-29T06:43:04;8.20;;;4.70;;
32295;SDS011;18781;51.550;5.418;2022-07-29T06:45:30;12.68;;;5.28;;
32295;SDS011;18781;51.550;5.418;2022-07-29T06:47:58;10.20;;;5.30;;
32295;SDS011;18781;51.550;5.418;2022-07-29T06:50:24;13.00;;;5.25;;
32295;SDS011;18781;51.550;5.418;2022-07-29T06:52:50;8.77;;;4.65;;
32295;SDS011;18781;51.550;5.418;2022-07-29T06:55:15;11.27;;;4.82;;
32295;SDS011;18781;51.550;5.418;2022-07-29T06:57:44;8.30;;;4.55;;
32295;SDS011;18781;51.550;5.418;2022-07-29T07:00:10;11.75;;;4.93;;
32295;SDS011;18781;51.550;5.418;2022-07-29T07:02:36;9.95;;;4.97;;
32295;SDS011;18781;51.550;5.418;2022-07-29T07:05:01;11.60;;;4.95;;
32295;SDS011;18781;51.550;5.418;2022-07-29T07:07:27;12.50;;;5.18;;
32295;SDS011;18781;51.550;5.418;2022-07-29T07:09:53;11.32;;;5.18;;
32295;SDS011;18781;51.550;5.418;2022-07-29T07:12:18;8.57;;;4.80;;
32295;SDS011;18781;51.550;5.418;2022-07-29T07:14:44;12.43;;;5.43;;
32295;SDS011;18781;51.550;5.418;2022-07-29T07:17:09;13.27;;;5.35;;
32295;SDS011;18781;51.550;5.418;2022-07-29T07:19:35;13.00;;;4.95;;
32295;SDS011;18781;51.550;5.418;2022-07-29T07:22:01;12.82;;;5.28;;
32295;SDS011;18781;51.550;5.418;2022-07-29T07:24:26;10.85;;;5.28;;
32295;SDS011;18781;51.550;5.418;2022-07-29T07:26:52;9.77;;;5.22;;
32295;SDS011;18781;51.550;5.418;2022-07-29T07:29:18;8.73;;;4.63;;
32295;SDS011;18781;51.550;5.418;2022-07-29T07:31:43;13.07;;;4.78;;
32295;SDS011;18781;51.550;5.418;2022-07-29T07:34:09;11.95;;;5.00;;
32295;SDS011;18781;51.550;5.418;2022-07-29T07:36:34;12.05;;;4.82;;
32295;SDS011;18781;51.550;5.418;2022-07-29T07:39:00;12.93;;;5.65;;
32295;SDS011;18781;51.550;5.418;2022-07-29T07:41:26;11.25;;;5.93;;
32295;SDS011;18781;51.550;5.418;2022-07-29T07:43:51;10.55;;;5.32;;
32295;SDS011;18781;51.550;5.418;2022-07-29T07:46:17;10.25;;;5.50;;
32295;SDS011;18781;51.550;5.418;2022-07-29T07:48:42;6.32;;;5.22;;
32295;SDS011;18781;51.550;5.418;2022-07-29T07:51:08;8.90;;;5.05;;
32295;SDS011;18781;51.550;5.418;2022-07-29T07:53:33;10.10;;;4.80;;
32295;SDS011;18781;51.550;5.418;2022-07-29T07:56:00;13.10;;;5.40;;
32295;SDS011;18781;51.550;5.418;2022-07-29T07:58:25;11.32;;;5.38;;
32295;SDS011;18781;51.550;5.418;2022-07-29T08:00:51;11.65;;;5.25;;
32295;SDS011;18781;51.550;5.418;2022-07-29T08:03:17;10.15;;;5.30;;
32295;SDS011;18781;51.550;5.418;2022-07-29T08:05:43;12.27;;;4.70;;
32295;SDS011;18781;51.550;5.418;2022-07-29T08:08:08;9.18;;;5.05;;
32295;SDS011;18781;51.550;5.418;2022-07-29T08:10:34;10.73;;;5.63;;
32295;SDS011;18781;51.550;5.418;2022-07-29T08:13:19;7.03;;;5.00;;
32295;SDS011;18781;51.550;5.418;2022-07-29T08:15:46;7.97;;;5.03;;
32295;SDS011;18781;51.550;5.418;2022-07-29T08:18:12;14.15;;;5.45;;
32295;SDS011;18781;51.550;5.418;2022-07-29T08:20:38;10.05;;;5.43;;
32295;SDS011;18781;51.550;5.418;2022-07-29T08:23:05;9.90;;;5.20;;
32295;SDS011;18781;51.550;5.418;2022-07-29T08:25:33;15.00;;;5.95;;
32295;SDS011;18781;51.550;5.418;2022-07-29T08:28:03;12.45;;;5.60;;
32295;SDS011;18781;51.550;5.418;2022-07-29T08:30:29;11.13;;;5.35;;
32295;SDS011;18781;51.550;5.418;2022-07-29T08:32:55;13.68;;;5.68;;
32295;SDS011;18781;51.550;5.418;2022-07-29T08:35:22;13.82;;;5.28;;
32295;SDS011;18781;51.550;5.418;2022-07-29T08:37:48;11.95;;;5.18;;
32295;SDS011;18781;51.550;5.418;2022-07-29T08:40:15;12.80;;;5.47;;
32295;SDS011;18781;51.550;5.418;2022-07-29T08:42:41;12.27;;;5.32;;
32295;SDS011;18781;51.550;5.418;2022-07-29T08:45:07;14.48;;;5.50;;
32295;SDS011;18781;51.550;5.418;2022-07-29T08:47:33;12.77;;;5.55;;
32295;SDS011;18781;51.550;5.418;2022-07-29T08:50:01;10.50;;;5.72;;
32295;SDS011;18781;51.550;5.418;2022-07-29T08:52:27;9.40;;;5.28;;
32295;SDS011;18781;51.550;5.418;2022-07-29T08:57:22;9.55;;;4.88;;
32295;SDS011;18781;51.550;5.418;2022-07-29T08:59:49;11.73;;;4.97;;
32295;SDS011;18781;51.550;5.418;2022-07-29T09:02:20;14.35;;;5.15;;
32295;SDS011;18781;51.550;5.418;2022-07-29T09:04:48;15.27;;;5.63;;
32295;SDS011;18781;51.550;5.418;2022-07-29T09:07:14;8.52;;;5.45;;
32295;SDS011;18781;51.550;5.418;2022-07-29T09:09:41;18.40;;;5.65;;
32295;SDS011;18781;51.550;5.418;2022-07-29T09:12:08;9.70;;;4.90;;
32295;SDS011;18781;51.550;5.418;2022-07-29T09:14:36;10.67;;;5.17;;
32295;SDS011;18781;51.550;5.418;2022-07-29T09:17:05;13.10;;;4.72;;
32295;SDS011;18781;51.550;5.418;2022-07-29T09:19:33;9.38;;;4.70;;
32295;SDS011;18781;51.550;5.418;2022-07-29T09:22:01;8.70;;;4.43;;
32295;SDS011;18781;51.550;5.418;2022-07-29T09:27:00;14.23;;;5.68;;
32295;SDS011;18781;51.550;5.418;2022-07-29T09:29:26;13.10;;;5.57;;
32295;SDS011;18781;51.550;5.418;2022-07-29T09:31:53;10.77;;;5.32;;
32295;SDS011;18781;51.550;5.418;2022-07-29T09:34:26;14.98;;;5.40;;
32295;SDS011;18781;51.550;5.418;2022-07-29T09:36:56;10.90;;;4.72;;
32295;SDS011;18781;51.550;5.418;2022-07-29T09:39:27;10.60;;;4.75;;
32295;SDS011;18781;51.550;5.418;2022-07-29T09:42:03;7.25;;;4.22;;
32295;SDS011;18781;51.550;5.418;2022-07-29T09:44:43;8.38;;;4.88;;
32295;SDS011;18781;51.550;5.418;2022-07-29T09:47:10;11.43;;;3.88;;
32295;SDS011;18781;51.550;5.418;2022-07-29T09:52:28;8.27;;;4.10;;
32295;SDS011;18781;51.550;5.418;2022-07-29T09:55:07;12.35;;;4.15;;
32295;SDS011;18781;51.550;5.418;2022-07-29T09:57:34;10.02;;;3.90;;
32295;SDS011;18781;51.550;5.418;2022-07-29T10:00:05;8.00;;;3.90;;
32295;SDS011;18781;51.550;5.418;2022-07-29T10:02:36;7.78;;;3.83;;
32295;SDS011;18781;51.550;5.418;2022-07-29T10:05:03;9.00;;;3.92;;
32295;SDS011;18781;51.550;5.418;2022-07-29T10:12:50;9.52;;;3.95;;
32295;SDS011;18781;51.550;5.418;2022-07-29T10:15:17;9.25;;;3.88;;
32295;SDS011;18781;51.550;5.418;2022-07-29T10:17:43;7.80;;;3.70;;
32295;SDS011;18781;51.550;5.418;2022-07-29T10:20:10;7.80;;;3.67;;
32295;SDS011;18781;51.550;5.418;2022-07-29T10:22:36;10.82;;;3.78;;
32295;SDS011;18781;51.550;5.418;2022-07-29T10:25:02;9.95;;;4.47;;
32295;SDS011;18781;51.550;5.418;2022-07-29T10:27:28;8.95;;;4.75;;
32295;SDS011;18781;51.550;5.418;2022-07-29T10:29:53;10.88;;;4.55;;
32295;SDS011;18781;51.550;5.418;2022-07-29T10:35:01;13.68;;;3.97;;
32295;SDS011;18781;51.550;5.418;2022-07-29T10:37:43;14.60;;;4.13;;
32295;SDS011;18781;51.550;5.418;2022-07-29T10:43:46;7.40;;;3.75;;
32295;SDS011;18781;51.550;5.418;2022-07-29T10:46:13;10.00;;;4.05;;
32295;SDS011;18781;51.550;5.418;2022-07-29T10:54:17;13.23;;;4.30;;
32295;SDS011;18781;51.550;5.418;2022-07-29T10:56:44;6.05;;;3.17;;
32295;SDS011;18781;51.550;5.418;2022-07-29T11:01:51;9.43;;;3.20;;
32295;SDS011;18781;51.550;5.418;2022-07-29T11:07:16;6.13;;;2.95;;
32295;SDS011;18781;51.550;5.418;2022-07-29T11:09:42;9.50;;;3.95;;
32295;SDS011;18781;51.550;5.418;2022-07-29T11:15:00;6.03;;;3.70;;
32295;SDS011;18781;51.550;5.418;2022-07-29T11:17:27;7.43;;;3.80;;
32295;SDS011;18781;51.550;5.418;2022-07-29T11:22:57;8.77;;;3.30;;
32295;SDS011;18781;51.550;5.418;2022-07-29T11:25:22;9.32;;;3.28;;
32295;SDS011;18781;51.550;5.418;2022-07-29T11:27:48;8.52;;;3.95;;
32295;SDS011;18781;51.550;5.418;2022-07-29T11:30:16;6.57;;;3.50;;
32295;SDS011;18781;51.550;5.418;2022-07-29T11:32:43;10.70;;;4.15;;
32295;SDS011;18781;51.550;5.418;2022-07-29T11:35:11;10.50;;;3.20;;
32295;SDS011;18781;51.550;5.418;2022-07-29T11:37:38;9.57;;;3.17;;
32295;SDS011;18781;51.550;5.418;2022-07-29T11:45:11;8.95;;;3.00;;
32295;SDS011;18781;51.550;5.418;2022-07-29T11:50:17;7.43;;;2.80;;
32295;SDS011;18781;51.550;5.418;2022-07-29T11:53:02;6.78;;;3.03;;
32295;SDS011;18781;51.550;5.418;2022-07-29T11:55:34;9.43;;;2.75;;
32295;SDS011;18781;51.550;5.418;2022-07-29T11:58:04;7.95;;;2.60;;
32295;SDS011;18781;51.550;5.418;2022-07-29T12:02:56;8.85;;;3.30;;
32295;SDS011;18781;51.550;5.418;2022-07-29T12:05:57;9.20;;;3.25;;
32295;SDS011;18781;51.550;5.418;2022-07-29T12:08:25;6.47;;;2.92;;
32295;SDS011;18781;51.550;5.418;2022-07-29T12:10:52;6.25;;;3.20;;
32295;SDS011;18781;51.550;5.418;2022-07-29T12:13:18;11.25;;;3.00;;
32295;SDS011;18781;51.550;5.418;2022-07-29T12:15:52;9.73;;;3.03;;
32295;SDS011;18781;51.550;5.418;2022-07-29T12:18:19;7.55;;;3.13;;
32295;SDS011;18781;51.550;5.418;2022-07-29T12:20:46;7.72;;;2.60;;
32295;SDS011;18781;51.550;5.418;2022-07-29T12:23:13;7.47;;;1.63;;
32295;SDS011;18781;51.550;5.418;2022-07-29T12:25:41;9.45;;;2.10;;
32295;SDS011;18781;51.550;5.418;2022-07-29T12:28:12;6.22;;;1.92;;
32295;SDS011;18781;51.550;5.418;2022-07-29T12:30:41;7.18;;;2.22;;
32295;SDS011;18781;51.550;5.418;2022-07-29T12:33:15;10.70;;;2.47;;
32295;SDS011;18781;51.550;5.418;2022-07-29T12:36:01;6.18;;;2.05;;
32295;SDS011;18781;51.550;5.418;2022-07-29T12:38:28;11.07;;;2.55;;
32295;SDS011;18781;51.550;5.418;2022-07-29T12:40:54;6.00;;;2.33;;
32295;SDS011;18781;51.550;5.418;2022-07-29T12:43:21;7.65;;;2.20;;
32295;SDS011;18781;51.550;5.418;2022-07-29T12:45:48;10.35;;;3.10;;
32295;SDS011;18781;51.550;5.418;2022-07-29T12:48:37;7.30;;;2.50;;
32295;SDS011;18781;51.550;5.418;2022-07-29T12:51:05;8.95;;;2.97;;
32295;SDS011;18781;51.550;5.418;2022-07-29T12:53:32;11.20;;;2.88;;
32295;SDS011;18781;51.550;5.418;2022-07-29T12:55:58;8.40;;;2.53;;
32295;SDS011;18781;51.550;5.418;2022-07-29T13:00:59;10.98;;;2.60;;
32295;SDS011;18781;51.550;5.418;2022-07-29T13:06:38;9.35;;;3.10;;
32295;SDS011;18781;51.550;5.418;2022-07-29T13:09:12;12.52;;;2.85;;
32295;SDS011;18781;51.550;5.418;2022-07-29T13:11:44;9.55;;;2.95;;
32295;SDS011;18781;51.550;5.418;2022-07-29T13:17:21;13.18;;;2.85;;
32295;SDS011;18781;51.550;5.418;2022-07-29T13:19:48;9.98;;;3.00;;
32295;SDS011;18781;51.550;5.418;2022-07-29T13:22:16;5.80;;;2.75;;
32295;SDS011;18781;51.550;5.418;2022-07-29T13:24:56;8.60;;;2.80;;
32295;SDS011;18781;51.550;5.418;2022-07-29T13:27:24;6.88;;;2.50;;
32295;SDS011;18781;51.550;5.418;2022-07-29T13:29:52;6.37;;;1.93;;
32295;SDS011;18781;51.550;5.418;2022-07-29T13:32:21;9.70;;;2.45;;
32295;SDS011;18781;51.550;5.418;2022-07-29T13:34:47;6.57;;;2.63;;
32295;SDS011;18781;51.550;5.418;2022-07-29T13:37:13;9.20;;;2.47;;
32295;SDS011;18781;51.550;5.418;2022-07-29T13:39:39;4.55;;;2.40;;
32295;SDS011;18781;51.550;5.418;2022-07-29T13:42:05;10.32;;;2.60;;
32295;SDS011;18781;51.550;5.418;2022-07-29T13:44:31;11.63;;;2.60;;
32295;SDS011;18781;51.550;5.418;2022-07-29T13:46:57;7.32;;;2.25;;
32295;SDS011;18781;51.550;5.418;2022-07-29T13:49:23;6.20;;;2.22;;
32295;SDS011;18781;51.550;5.418;2022-07-29T13:51:49;10.68;;;2.63;;
32295;SDS011;18781;51.550;5.418;2022-07-29T13:54:15;6.38;;;2.25;;
32295;SDS011;18781;51.550;5.418;2022-07-29T13:56:41;7.85;;;2.40;;
32295;SDS011;18781;51.550;5.418;2022-07-29T13:59:06;8.60;;;2.33;;
32295;SDS011;18781;51.550;5.418;2022-07-29T14:01:33;6.53;;;1.95;;
32295;SDS011;18781;51.550;5.418;2022-07-29T14:06:27;6.72;;;2.33;;
32295;SDS011;18781;51.550;5.418;2022-07-29T14:08:53;9.00;;;2.55;;
32295;SDS011;18781;51.550;5.418;2022-07-29T14:11:19;7.45;;;2.33;;
32295;SDS011;18781;51.550;5.418;2022-07-29T14:13:44;7.85;;;1.90;;
32295;SDS011;18781;51.550;5.418;2022-07-29T14:16:10;8.15;;;2.60;;
32295;SDS011;18781;51.550;5.418;2022-07-29T14:18:36;6.85;;;2.28;;
32295;SDS011;18781;51.550;5.418;2022-07-29T14:21:01;9.75;;;2.70;;
32295;SDS011;18781;51.550;5.418;2022-07-29T14:23:27;7.03;;;2.15;;
32295;SDS011;18781;51.550;5.418;2022-07-29T14:25:53;5.70;;;2.05;;
32295;SDS011;18781;51.550;5.418;2022-07-29T14:28:19;8.35;;;2.47;;
32295;SDS011;18781;51.550;5.418;2022-07-29T14:30:44;10.80;;;2.38;;
32295;SDS011;18781;51.550;5.418;2022-07-29T14:33:10;8.73;;;2.17;;
32295;SDS011;18781;51.550;5.418;2022-07-29T14:35:36;8.30;;;2.13;;
32295;SDS011;18781;51.550;5.418;2022-07-29T14:38:02;11.85;;;2.20;;
32295;SDS011;18781;51.550;5.418;2022-07-29T14:40:27;9.05;;;1.92;;
32295;SDS011;18781;51.550;5.418;2022-07-29T14:42:53;8.23;;;2.05;;
32295;SDS011;18781;51.550;5.418;2022-07-29T14:45:18;12.77;;;2.50;;
32295;SDS011;18781;51.550;5.418;2022-07-29T14:47:44;7.15;;;1.98;;
32295;SDS011;18781;51.550;5.418;2022-07-29T14:50:10;6.80;;;2.00;;
32295;SDS011;18781;51.550;5.418;2022-07-29T14:52:36;5.32;;;1.95;;
32295;SDS011;18781;51.550;5.418;2022-07-29T14:55:02;8.02;;;2.28;;
32295;SDS011;18781;51.550;5.418;2022-07-29T14:57:28;6.85;;;2.08;;
32295;SDS011;18781;51.550;5.418;2022-07-29T14:59:54;5.43;;;1.95;;
32295;SDS011;18781;51.550;5.418;2022-07-29T15:02:19;11.65;;;2.25;;
32295;SDS011;18781;51.550;5.418;2022-07-29T15:04:45;6.68;;;2.22;;
32295;SDS011;18781;51.550;5.418;2022-07-29T15:07:12;6.60;;;2.00;;
32295;SDS011;18781;51.550;5.418;2022-07-29T15:09:38;5.18;;;1.80;;
32295;SDS011;18781;51.550;5.418;2022-07-29T15:12:04;6.43;;;1.60;;
32295;SDS011;18781;51.550;5.418;2022-07-29T15:14:30;7.22;;;2.20;;
32295;SDS011;18781;51.550;5.418;2022-07-29T15:16:56;6.95;;;2.20;;
32295;SDS011;18781;51.550;5.418;2022-07-29T15:19:22;9.13;;;2.17;;
32295;SDS011;18781;51.550;5.418;2022-07-29T15:21:48;7.22;;;2.05;;
32295;SDS011;18781;51.550;5.418;2022-07-29T15:24:14;8.52;;;2.03;;
32295;SDS011;18781;51.550;5.418;2022-07-29T15:26:43;8.75;;;2.70;;
32295;SDS011;18781;51.550;5.418;2022-07-29T15:29:09;7.28;;;2.25;;
32295;SDS011;18781;51.550;5.418;2022-07-29T15:31:34;15.65;;;2.22;;
32295;SDS011;18781;51.550;5.418;2022-07-29T15:34:00;4.70;;;1.90;;
32295;SDS011;18781;51.550;5.418;2022-07-29T15:36:25;4.93;;;1.90;;
32295;SDS011;18781;51.550;5.418;2022-07-29T15:38:53;7.70;;;2.28;;
32295;SDS011;18781;51.550;5.418;2022-07-29T15:41:18;7.95;;;1.88;;
32295;SDS011;18781;51.550;5.418;2022-07-29T15:43:45;5.85;;;1.63;;
32295;SDS011;18781;51.550;5.418;2022-07-29T15:46:13;5.65;;;1.98;;
32295;SDS011;18781;51.550;5.418;2022-07-29T15:48:57;9.85;;;2.10;;
32295;SDS011;18781;51.550;5.418;2022-07-29T15:51:23;7.03;;;2.05;;
32295;SDS011;18781;51.550;5.418;2022-07-29T15:53:49;4.18;;;1.75;;
32295;SDS011;18781;51.550;5.418;2022-07-29T15:56:15;11.10;;;1.80;;